Vantage, Washington
Current Conditions -  °F | °C
As of 9:53 PM on Sunday 25 Jan 2015 (Local Time) from KELN Reporting Station
Moderate Fog Moderate Fog  
Wind Chill: 33°   Ceiling: 200
Heat Index: 33°   Visibility: 0.25mi
Dew Point: 31°   Wind: 0mph
Humidity: 92%   Direction: NA
Pressure: 30.14"   Gusts: NA
Location:  46.95°N, 119.99°W
Report Text: KELN 260553Z AUTO 00000KT 1/4SM FG VV002 01/M01 A3014 RMK AO2 SLP218 T00061006 10072 20006 58001
Loading
Personal Weather Stations






























Interactive Weather Map New forecast layout! Learn more

10-Day Weather Forecast

Advertisements
Track Severe Weather on mobile